Time;durP1;ratioP1;P1;durP2;ratioP2;P2;SDS_P1;SDS_P2;PMS_P1;PMS_P2;Temp;Humidity;BMP_temperature;BMP_pressure;BME280_temperature;BME280_humidity;BME280_pressure;Samples;Min_cycle;Max_cycle;Signal;HPM_P1;HPM_P2
2021/09/15 00:02:15;;;;;;;482.63;453.23;;;21.20;99.90;;;;;;5078260;28;20164;-85
2021/09/15 00:04:41;;;;;;;496.93;467.20;;;21.20;99.90;;;;;;5077588;28;20173;-85
2021/09/15 00:07:06;;;;;;;485.60;456.10;;;21.20;99.90;;;;;;5078229;28;20233;-85
2021/09/15 00:09:32;;;;;;;516.67;485.27;;;21.20;99.90;;;;;;5078605;28;20171;-85
2021/09/15 00:11:58;;;;;;;511.90;480.43;;;21.20;99.90;;;;;;5076836;28;20193;-85
2021/09/15 00:14:24;;;;;;;548.27;514.47;;;21.20;99.90;;;;;;5078174;28;20214;-84
2021/09/15 00:16:50;;;;;;;546.27;512.97;;;21.20;99.90;;;;;;5078097;28;20422;-85
2021/09/15 00:19:15;;;;;;;508.20;477.10;;;21.20;99.90;;;;;;5075529;28;20203;-85
2021/09/15 00:21:41;;;;;;;508.77;478.47;;;21.20;99.90;;;;;;5077922;28;20669;-85
2021/09/15 00:24:07;;;;;;;527.07;495.17;;;21.10;99.90;;;;;;5077752;28;20900;-85
2021/09/15 00:26:32;;;;;;;513.43;482.30;;;21.10;99.90;;;;;;5077764;28;20184;-85
2021/09/15 00:28:58;;;;;;;531.80;500.07;;;21.10;99.90;;;;;;5077765;28;20237;-85
2021/09/15 00:31:24;;;;;;;511.40;480.43;;;21.10;99.90;;;;;;5077465;28;20171;-85
2021/09/15 00:33:49;;;;;;;548.40;514.87;;;21.20;99.90;;;;;;5077885;28;20168;-85
2021/09/15 00:36:15;;;;;;;522.20;490.13;;;21.10;99.90;;;;;;5077849;28;20193;-85
2021/09/15 00:38:41;;;;;;;548.90;515.80;;;21.10;99.90;;;;;;5077303;28;20274;-84
2021/09/15 00:41:06;;;;;;;524.73;492.63;;;21.10;99.90;;;;;;5076346;28;20165;-84
2021/09/15 00:43:32;;;;;;;534.00;501.40;;;21.00;99.90;;;;;;5077673;28;20163;-85
2021/09/15 00:45:58;;;;;;;534.60;501.90;;;21.10;99.90;;;;;;5077825;28;20200;-84
2021/09/15 00:48:25;;;;;;;539.17;506.30;;;21.10;99.90;;;;;;5076193;28;20175;-85
2021/09/15 00:50:51;;;;;;;563.33;529.20;;;21.10;99.90;;;;;;5076187;28;20786;-85
2021/09/15 00:53:17;;;;;;;570.43;536.17;;;21.10;99.90;;;;;;5077609;28;20428;-85
2021/09/15 00:55:43;;;;;;;557.87;523.83;;;21.10;99.90;;;;;;5077999;28;20405;-84
2021/09/15 00:58:09;;;;;;;540.73;507.60;;;21.10;99.90;;;;;;5075618;28;20456;-84
2021/09/15 01:00:34;;;;;;;538.80;506.13;;;21.10;99.90;;;;;;5077223;28;20167;-84
2021/09/15 01:03:00;;;;;;;511.80;480.90;;;21.10;99.90;;;;;;5077044;28;20164;-85
2021/09/15 01:05:26;;;;;;;512.07;481.07;;;21.10;99.90;;;;;;5076184;28;20163;-85
2021/09/15 01:07:53;;;;;;;531.60;499.40;;;21.00;99.90;;;;;;5077420;28;20216;-85
2021/09/15 01:10:20;;;;;;;537.97;505.50;;;21.00;99.90;;;;;;5077465;28;20494;-85
2021/09/15 01:12:45;;;;;;;519.37;487.53;;;21.00;99.90;;;;;;5076911;28;20415;-85
2021/09/15 01:15:11;;;;;;;539.20;507.07;;;21.00;99.90;;;;;;5076997;28;20893;-85
2021/09/15 01:17:37;;;;;;;537.43;505.73;;;21.00;99.90;;;;;;5075696;28;20192;-85
2021/09/15 01:20:04;;;;;;;543.23;510.90;;;21.00;99.90;;;;;;5077242;28;20192;-85
2021/09/15 01:22:30;;;;;;;540.77;508.07;;;20.90;99.90;;;;;;5075801;28;20194;-85
2021/09/15 01:24:56;;;;;;;505.33;474.30;;;20.90;99.90;;;;;;5075296;28;20402;-85
2021/09/15 01:27:22;;;;;;;550.23;516.83;;;20.80;99.90;;;;;;5076773;28;20187;-85
2021/09/15 01:29:47;;;;;;;560.87;527.30;;;20.80;99.90;;;;;;5077011;28;20243;-85
2021/09/15 01:32:15;;;;;;;524.80;492.90;;;20.80;99.90;;;;;;5076352;28;20161;-85
2021/09/15 01:34:53;;;;;;;515.43;483.57;;;20.80;99.90;;;;;;5075450;28;20171;-85
2021/09/15 01:37:19;;;;;;;554.33;520.53;;;20.80;99.90;;;;;;5075545;28;20428;-85
2021/09/15 01:39:45;;;;;;;531.33;499.70;;;20.70;99.90;;;;;;5076830;28;20407;-84
2021/09/15 01:42:11;;;;;;;529.40;498.30;;;20.60;99.90;;;;;;5075219;28;20410;-85
2021/09/15 01:44:43;;;;;;;534.07;501.47;;;20.70;99.90;;;;;;5076685;28;20168;-84
2021/09/15 01:47:11;;;;;;;536.03;503.33;;;20.70;99.90;;;;;;5076812;28;20210;-85
2021/09/15 01:49:41;;;;;;;517.37;486.53;;;20.70;99.90;;;;;;5076083;28;20402;-84
2021/09/15 01:56:57;;;;;;;;;;;;;;;;;;;;;
2021/09/15 02:00:03;;;;;;;;;;;;;;;;;;;;;
2021/09/15 02:03:12;;;;;;;518.53;487.60;;;20.60;99.90;;;;;;5053598;28;20410;-87
2021/09/15 02:06:27;;;;;;;527.67;495.60;;;20.60;99.90;;;;;;5037998;28;20417;-87
2021/09/15 02:10:09;;;;;;;;;;;;;;;;;;;;;
2021/09/15 02:13:13;;;;;;;539.20;507.17;;;20.60;99.90;;;;;;5053627;28;20408;-88
2021/09/15 02:39:35;;;;;;;;;;;;;;;;;;;;;
2021/09/15 02:46:23;;;;;;;531.00;499.13;;;20.50;99.90;;;;;;4932112;28;20773;-87
2021/09/15 02:49:30;;;;;;;;;;;;;;;;;;;;;
2021/09/15 02:52:09;;;;;;;488.90;458.73;;;20.50;99.90;;;;;;5052753;28;20423;-86
2021/09/15 02:55:11;;;;;;;473.17;443.57;;;20.50;99.90;;;;;;5053852;28;20809;-86
2021/09/15 03:01:46;;;;;;;475.67;446.37;;;20.50;99.90;;;;;;4972328;28;20404;-86
2021/09/15 03:05:21;;;;;;;;;;;;;;;;;;;;;
2021/09/15 03:08:39;;;;;;;;;;;;;;;;;;;;;
2021/09/15 03:11:43;;;;;;;477.07;447.60;;;20.50;99.90;;;;;;5053742;28;20913;-87
2021/09/15 03:18:19;;;;;;;401.63;376.73;;;20.50;99.90;;;;;;5010769;28;20447;-87
2021/09/15 03:21:41;;;;;;;;;;;;;;;;;;;;;
2021/09/15 03:24:51;;;;;;;397.97;372.67;;;20.40;99.90;;;;;;5010452;28;20418;-86
2021/09/15 03:31:11;;;;;;;370.87;346.63;;;20.30;99.90;;;;;;5010459;28;20490;-87
2021/09/15 03:47:18;;;;;;;322.83;301.37;;;20.30;99.90;;;;;;5068555;28;20521;-86
2021/09/15 03:49:43;;;;;;;394.60;369.93;;;20.40;99.90;;;;;;5072691;28;20393;-86
2021/09/15 03:52:15;;;;;;;385.50;361.40;;;20.30;99.90;;;;;;5072598;28;20402;-86
2021/09/15 03:55:07;;;;;;;343.10;320.63;;;20.30;99.90;;;;;;5073354;28;20171;-86
2021/09/15 04:02:08;;;;;;;377.77;353.50;;;20.20;99.90;;;;;;4927856;28;20407;-86
2021/09/15 04:11:30;;;;;;;367.23;343.67;;;20.10;99.90;;;;;;4975124;28;20410;-87
2021/09/15 04:14:38;;;;;;;373.03;349.50;;;20.20;99.90;;;;;;4994773;28;20421;-87
2021/09/15 04:18:08;;;;;;;393.73;368.73;;;20.30;99.90;;;;;;4951721;28;20515;-87
2021/09/15 04:21:36;;;;;;;402.97;377.17;;;20.30;99.90;;;;;;4920001;29;20467;-87
2021/09/15 04:35:05;;;;;;;399.70;373.87;;;20.40;99.90;;;;;;4879917;29;20407;-86
2021/09/15 04:38:00;;;;;;;409.77;383.07;;;20.40;99.90;;;;;;4900142;28;20430;-86
2021/09/15 04:41:07;;;;;;;408.13;382.00;;;20.40;99.90;;;;;;4954244;28;20430;-86
2021/09/15 04:44:04;;;;;;;388.77;363.40;;;20.30;99.90;;;;;;4952213;28;20522;-86
2021/09/15 04:46:42;;;;;;;387.03;362.83;;;20.20;99.90;;;;;;5080152;28;20995;-87
2021/09/15 04:49:59;;;;;;;388.77;364.13;;;20.30;99.90;;;;;;5073849;28;20426;-86
2021/09/15 04:52:40;;;;;;;397.40;372.20;;;20.20;99.90;;;;;;5074178;28;20432;-86
2021/09/15 04:55:42;;;;;;;392.70;367.60;;;20.20;99.90;;;;;;5074741;28;20743;-86
2021/09/15 04:58:55;;;;;;;375.43;351.33;;;20.10;99.90;;;;;;5074174;28;20909;-87
2021/09/15 05:01:56;;;;;;;390.57;365.73;;;20.00;99.90;;;;;;5073943;28;20404;-86
2021/09/15 05:07:29;;;;;;;384.33;359.97;;;20.00;99.90;;;;;;5052237;28;20461;-86
2021/09/15 05:10:16;;;;;;;388.60;363.40;;;20.00;99.90;;;;;;5074226;28;20452;-86
2021/09/15 05:13:23;;;;;;;396.67;371.53;;;20.00;99.90;;;;;;5074515;28;20402;-86
2021/09/15 05:22:13;;;;;;;334.40;311.50;;;20.10;99.90;;;;;;5033076;28;20396;-86
2021/09/15 05:24:50;;;;;;;383.37;358.17;;;20.20;99.90;;;;;;5032520;28;20442;-86
2021/09/15 05:28:17;;;;;;;399.90;374.57;;;20.10;99.90;;;;;;5003973;28;20468;-86
2021/09/15 05:34:22;;;;;;;396.77;371.23;;;20.10;99.90;;;;;;4991723;28;20417;-87
2021/09/15 05:36:48;;;;;;;377.23;352.50;;;20.10;99.90;;;;;;4993155;28;20452;-85
2021/09/15 05:39:14;;;;;;;391.77;366.47;;;20.10;99.90;;;;;;5044472;28;20851;-85
2021/09/15 05:41:39;;;;;;;378.27;354.20;;;20.10;99.90;;;;;;5054343;28;20162;-85
2021/09/15 05:44:05;;;;;;;357.77;334.27;;;20.00;99.90;;;;;;5052949;28;20239;-85
2021/09/15 05:46:31;;;;;;;393.80;369.03;;;20.10;99.90;;;;;;5052808;28;20529;-84
2021/09/15 05:48:57;;;;;;;410.80;384.77;;;20.10;99.90;;;;;;5054460;28;20168;-85
2021/09/15 05:51:22;;;;;;;382.80;357.40;;;20.20;99.90;;;;;;5054092;28;20186;-85
2021/09/15 05:53:48;;;;;;;403.63;377.83;;;20.20;99.90;;;;;;5054306;28;20640;-85
2021/09/15 05:56:14;;;;;;;346.00;323.33;;;20.20;99.90;;;;;;5053934;28;20275;-85
2021/09/15 05:58:39;;;;;;;374.60;350.37;;;20.10;99.90;;;;;;5052724;28;20192;-87
2021/09/15 06:01:06;;;;;;;368.40;344.43;;;20.10;99.90;;;;;;5053939;28;20164;-87
2021/09/15 06:03:32;;;;;;;350.07;327.17;;;20.10;99.90;;;;;;5052728;28;20283;-87
2021/09/15 06:05:58;;;;;;;369.93;345.33;;;20.20;99.90;;;;;;5054088;28;20376;-86
2021/09/15 06:08:24;;;;;;;340.17;317.97;;;20.20;99.90;;;;;;5054395;28;20405;-87
2021/09/15 06:10:50;;;;;;;377.97;353.77;;;20.20;99.90;;;;;;5052516;28;20179;-87
2021/09/15 06:13:16;;;;;;;325.87;304.13;;;20.20;99.90;;;;;;5053731;28;20170;-87
2021/09/15 06:15:42;;;;;;;340.27;318.33;;;20.20;99.90;;;;;;5053636;28;20493;-87
2021/09/15 06:18:07;;;;;;;347.93;325.50;;;20.30;99.90;;;;;;5051234;28;20465;-87
2021/09/15 06:20:33;;;;;;;344.67;322.33;;;20.20;99.90;;;;;;5053516;28;20403;-87
2021/09/15 06:22:59;;;;;;;316.97;295.70;;;20.20;99.90;;;;;;5053925;28;20162;-87
2021/09/15 06:25:26;;;;;;;329.03;307.20;;;20.20;99.90;;;;;;5053672;28;20179;-86
2021/09/15 06:27:54;;;;;;;332.40;310.70;;;20.30;99.90;;;;;;5053438;28;20191;-86
2021/09/15 06:30:21;;;;;;;307.23;286.70;;;20.30;99.90;;;;;;5053469;28;21007;-87
2021/09/15 06:32:47;;;;;;;311.30;290.33;;;20.30;99.90;;;;;;5053372;28;20431;-87
2021/09/15 06:35:25;;;;;;;;;;;;;;;;;;;;;
2021/09/15 06:38:12;;;;;;;;;;;;;;;;;;;;;
2021/09/15 06:40:58;;;;;;;287.43;268.10;;;20.40;99.90;;;;;;5041642;28;20399;-88
2021/09/15 06:43:53;;;;;;;318.47;297.77;;;20.40;99.90;;;;;;5051806;28;20781;-88
2021/09/15 06:46:42;;;;;;;308.17;287.60;;;20.40;99.90;;;;;;5052056;28;20480;-88
2021/09/15 06:49:43;;;;;;;305.30;283.93;;;20.50;99.90;;;;;;5047219;28;20411;-88
2021/09/15 06:52:15;;;;;;;316.07;295.00;;;20.60;99.90;;;;;;5049067;28;20516;-88
2021/09/15 06:54:53;;;;;;;322.77;301.20;;;20.70;99.90;;;;;;5052987;28;20459;-88
2021/09/15 07:00:53;;;;;;;303.77;283.00;;;20.70;99.90;;;;;;5010765;28;20505;-88
2021/09/15 07:03:27;;;;;;;319.33;298.17;;;20.60;99.90;;;;;;5053169;28;20391;-88
2021/09/15 07:06:01;;;;;;;322.40;300.63;;;20.60;99.90;;;;;;5053014;28;20408;-88
2021/09/15 07:08:43;;;;;;;284.77;265.47;;;20.70;99.90;;;;;;5052826;28;20435;-88
2021/09/15 07:11:15;;;;;;;305.93;285.63;;;20.70;99.90;;;;;;5053415;28;20885;-88
2021/09/15 07:13:46;;;;;;;274.17;255.20;;;20.70;99.90;;;;;;5053384;28;20483;-86
2021/09/15 07:16:12;;;;;;;300.83;280.40;;;20.70;99.90;;;;;;5053174;28;20414;-86
2021/09/15 07:18:38;;;;;;;294.43;274.23;;;20.70;99.90;;;;;;5052533;28;20546;-86
2021/09/15 07:21:07;;;;;;;325.57;304.23;;;20.70;99.90;;;;;;5051657;28;20409;-86
2021/09/15 07:23:38;;;;;;;313.67;292.53;;;20.80;99.90;;;;;;5051284;28;20427;-86
2021/09/15 07:26:05;;;;;;;289.00;269.20;;;20.90;99.90;;;;;;5052755;28;20379;-86
2021/09/15 07:28:31;;;;;;;277.23;258.13;;;20.80;99.90;;;;;;5053176;28;20398;-86
2021/09/15 07:31:00;;;;;;;287.97;268.63;;;20.90;99.90;;;;;;5056913;28;20463;-85
2021/09/15 07:33:37;;;;;;;307.07;287.07;;;20.90;99.90;;;;;;5056925;28;20406;-85
2021/09/15 07:37:12;;;;;;;311.93;291.23;;;21.00;99.90;;;;;;5056568;28;20384;-85
2021/09/15 07:39:15;;;;;;;323.50;301.83;;;21.10;99.90;;;;;;5048775;28;20447;-85
2021/09/15 07:41:40;;;;;;;297.77;277.67;;;21.10;99.90;;;;;;5056527;28;20536;-86
2021/09/15 07:44:33;;;;;;;317.43;296.13;;;21.00;99.90;;;;;;5056330;28;20449;-85
2021/09/15 07:49:49;;;;;;;317.30;296.30;;;21.20;99.90;;;;;;3294804;26;20532;-87
2021/09/15 07:52:15;;;;;;;352.50;329.60;;;21.20;99.90;;;;;;5143485;23;20469;-84
2021/09/15 07:54:41;;;;;;;335.57;313.47;;;21.20;99.90;;;;;;5084377;28;20788;-84
2021/09/15 07:57:07;;;;;;;330.67;309.60;;;21.20;99.90;;;;;;5083938;28;20418;-85
2021/09/15 07:59:33;;;;;;;343.83;322.23;;;21.20;99.90;;;;;;5084007;28;20555;-85
2021/09/15 08:01:59;;;;;;;326.37;305.50;;;21.20;99.90;;;;;;5084611;28;20197;-85
2021/09/15 08:04:25;;;;;;;341.63;320.17;;;21.20;99.90;;;;;;5084322;28;20488;-84
2021/09/15 08:06:50;;;;;;;358.73;336.07;;;21.20;99.90;;;;;;5083663;28;20191;-85
2021/09/15 08:09:16;;;;;;;353.67;332.17;;;21.20;99.90;;;;;;5081766;28;20493;-83
2021/09/15 08:11:42;;;;;;;380.00;357.27;;;21.20;99.90;;;;;;5082185;28;20185;-83
2021/09/15 08:14:07;;;;;;;383.20;360.77;;;21.20;99.90;;;;;;5081912;28;20220;-84
2021/09/15 08:16:33;;;;;;;355.17;332.37;;;21.30;99.90;;;;;;5079796;28;20202;-84
2021/09/15 08:19:01;;;;;;;323.73;303.67;;;21.40;99.90;;;;;;5081121;28;20562;-84
2021/09/15 08:21:28;;;;;;;345.30;324.43;;;21.50;99.90;;;;;;5079607;28;20420;-84
2021/09/15 08:23:53;;;;;;;373.27;351.33;;;21.50;99.90;;;;;;5079929;28;20406;-83
2021/09/15 08:26:20;;;;;;;422.47;397.63;;;21.50;99.90;;;;;;5080134;28;20419;-84
2021/09/15 08:28:46;;;;;;;420.03;395.17;;;21.50;99.90;;;;;;5079076;28;20629;-84
2021/09/15 08:31:12;;;;;;;426.37;401.33;;;21.50;99.90;;;;;;5081993;28;20410;-83
2021/09/15 08:33:38;;;;;;;423.27;398.33;;;21.40;99.90;;;;;;5079465;28;20414;-84
2021/09/15 08:36:04;;;;;;;415.93;390.80;;;21.40;99.90;;;;;;5081652;28;20178;-84
2021/09/15 08:38:30;;;;;;;430.17;404.23;;;21.40;99.90;;;;;;5080995;28;20979;-84
2021/09/15 08:40:56;;;;;;;435.50;409.30;;;21.50;99.90;;;;;;5079387;28;20497;-84
2021/09/15 08:43:22;;;;;;;430.77;404.30;;;21.50;99.90;;;;;;5080976;28;21010;-83
2021/09/15 08:45:47;;;;;;;448.17;421.07;;;21.60;99.90;;;;;;5079276;28;20941;-84
2021/09/15 08:48:18;;;;;;;474.50;445.57;;;21.60;99.90;;;;;;5080251;28;20463;-84
2021/09/15 08:50:49;;;;;;;457.20;429.43;;;21.60;99.90;;;;;;5079687;28;20615;-83
2021/09/15 08:53:15;;;;;;;484.90;456.20;;;21.60;99.90;;;;;;5081771;28;20450;-84
2021/09/15 08:55:42;;;;;;;441.57;414.40;;;21.60;99.90;;;;;;5080283;28;20406;-84
2021/09/15 08:58:07;;;;;;;453.83;425.77;;;21.60;99.90;;;;;;5080123;28;20525;-84
2021/09/15 09:00:33;;;;;;;468.90;440.77;;;21.60;99.90;;;;;;5079334;28;20426;-84
2021/09/15 09:02:58;;;;;;;436.97;410.97;;;21.70;99.90;;;;;;5080591;28;20575;-84
2021/09/15 09:05:24;;;;;;;472.70;443.60;;;21.80;99.90;;;;;;5078979;28;20174;-84
2021/09/15 09:07:50;;;;;;;506.07;474.30;;;22.00;99.90;;;;;;5079406;28;20223;-84
2021/09/15 09:10:16;;;;;;;536.87;504.70;;;22.00;99.90;;;;;;5079148;28;20172;-85
2021/09/15 09:12:44;;;;;;;530.27;499.10;;;22.10;99.90;;;;;;5079956;28;20167;-84
2021/09/15 09:15:30;;;;;;;543.17;509.97;;;22.00;99.90;;;;;;5079648;28;20451;-84
2021/09/15 09:18:00;;;;;;;541.43;508.93;;;22.10;99.90;;;;;;5079155;28;20473;-84
2021/09/15 09:20:35;;;;;;;519.80;488.23;;;22.20;99.90;;;;;;5079454;28;20400;-84
2021/09/15 09:23:03;;;;;;;523.90;492.83;;;22.30;99.90;;;;;;5079804;28;20401;-84
2021/09/15 09:25:33;;;;;;;530.67;499.47;;;22.30;99.90;;;;;;5078600;28;20485;-84
2021/09/15 09:27:58;;;;;;;522.07;491.37;;;22.30;99.90;;;;;;5077794;28;20528;-84
2021/09/15 09:30:34;;;;;;;527.40;496.50;;;22.30;99.90;;;;;;5077703;28;20437;-84
2021/09/15 09:33:01;;;;;;;513.60;483.57;;;22.30;99.90;;;;;;5078759;28;20160;-83
2021/09/15 09:35:51;;;;;;;506.97;476.13;;;22.30;99.90;;;;;;5077068;28;20971;-84
2021/09/15 09:38:28;;;;;;;490.23;461.07;;;22.40;99.90;;;;;;5077721;28;20480;-84
2021/09/15 09:41:15;;;;;;;496.53;466.87;;;22.40;99.90;;;;;;5078681;28;20485;-84
2021/09/15 09:43:51;;;;;;;521.60;491.13;;;22.30;99.90;;;;;;5079929;28;20408;-83
2021/09/15 09:46:20;;;;;;;486.67;458.37;;;22.20;99.90;;;;;;5078470;28;20448;-84
2021/09/15 09:48:54;;;;;;;529.03;497.80;;;22.20;99.90;;;;;;5076233;28;20425;-83
2021/09/15 09:51:27;;;;;;;519.93;489.60;;;22.10;99.90;;;;;;5076175;28;20464;-83
2021/09/15 09:54:23;;;;;;;481.63;452.20;;;22.20;99.90;;;;;;5075793;28;20958;-83
2021/09/15 09:56:51;;;;;;;495.70;466.07;;;22.10;99.90;;;;;;5077000;28;20421;-83
2021/09/15 09:59:19;;;;;;;475.23;446.40;;;22.00;99.90;;;;;;5077204;28;20972;-83
2021/09/15 10:01:49;;;;;;;495.93;466.07;;;22.00;99.90;;;;;;5077445;28;20399;-84
2021/09/15 10:04:16;;;;;;;512.10;481.37;;;22.00;99.90;;;;;;5077328;28;20452;-84
2021/09/15 10:06:44;;;;;;;515.70;485.27;;;22.00;99.90;;;;;;5078577;28;20420;-84
2021/09/15 10:09:10;;;;;;;503.40;473.30;;;22.00;99.90;;;;;;5077661;28;20493;-84
2021/09/15 10:11:37;;;;;;;503.63;472.33;;;22.00;99.90;;;;;;5078417;28;20432;-83
2021/09/15 10:14:06;;;;;;;479.23;449.37;;;22.00;99.90;;;;;;5077826;28;20402;-84
2021/09/15 10:16:40;;;;;;;484.13;454.87;;;21.90;99.90;;;;;;5078156;28;20951;-84
2021/09/15 10:19:07;;;;;;;495.73;465.00;;;21.80;99.90;;;;;;5077981;28;20442;-84
2021/09/15 10:21:34;;;;;;;449.93;421.57;;;21.80;99.90;;;;;;5077928;28;20481;-84
2021/09/15 10:24:01;;;;;;;451.90;424.07;;;21.60;99.90;;;;;;5076739;28;20412;-84
2021/09/15 10:26:36;;;;;;;436.80;409.37;;;21.60;99.90;;;;;;5076818;28;20418;-83
2021/09/15 10:29:24;;;;;;;429.93;402.83;;;21.60;99.90;;;;;;5079416;28;20378;-84
2021/09/15 10:32:08;;;;;;;442.07;414.80;;;21.70;99.90;;;;;;5076821;28;20778;-84
2021/09/15 10:34:40;;;;;;;400.43;375.93;;;21.70;99.90;;;;;;5078842;28;20862;-84
2021/09/15 10:37:26;;;;;;;435.57;409.50;;;21.80;99.90;;;;;;5079055;28;20422;-84
2021/09/15 10:40:12;;;;;;;414.57;389.47;;;21.70;99.90;;;;;;5079061;28;20421;-84
2021/09/15 10:42:39;;;;;;;441.97;415.30;;;21.60;99.90;;;;;;5078540;28;20402;-84
2021/09/15 10:45:11;;;;;;;413.30;388.13;;;21.60;99.90;;;;;;5078037;28;20402;-84
2021/09/15 10:47:46;;;;;;;436.57;409.03;;;21.60;99.90;;;;;;5077669;28;20422;-84
2021/09/15 10:50:37;;;;;;;448.37;421.17;;;21.70;99.90;;;;;;5074570;28;20490;-82
2021/09/15 10:53:11;;;;;;;435.57;408.37;;;21.60;99.90;;;;;;5073540;28;20448;-83
2021/09/15 10:55:47;;;;;;;420.27;394.43;;;21.60;99.90;;;;;;5074791;28;20412;-83
2021/09/15 10:58:25;;;;;;;440.47;413.43;;;21.50;99.90;;;;;;5075756;28;20813;-84
2021/09/15 11:00:56;;;;;;;392.80;369.60;;;21.40;99.90;;;;;;5076070;28;20418;-85
2021/09/15 11:03:41;;;;;;;389.07;366.17;;;21.40;99.90;;;;;;5077023;28;20401;-85
2021/09/15 11:06:07;;;;;;;340.07;319.73;;;21.40;99.90;;;;;;5077094;28;20426;-84
2021/09/15 11:08:42;;;;;;;330.53;310.77;;;21.40;99.90;;;;;;5078379;28;20465;-84
2021/09/15 11:11:21;;;;;;;288.80;270.50;;;21.50;99.90;;;;;;5076696;28;20164;-85
2021/09/15 11:13:53;;;;;;;269.97;252.47;;;21.60;99.90;;;;;;5077996;28;20390;-85
2021/09/15 11:16:35;;;;;;;291.50;272.90;;;21.60;99.90;;;;;;5078136;28;20454;-86
2021/09/15 11:19:11;;;;;;;257.57;240.77;;;21.70;99.90;;;;;;5078756;28;20441;-85
2021/09/15 11:21:39;;;;;;;297.93;279.37;;;21.80;99.90;;;;;;5076927;28;20424;-85
2021/09/15 11:24:14;;;;;;;257.73;240.83;;;21.80;99.90;;;;;;5078094;28;20452;-84
2021/09/15 11:26:49;;;;;;;252.53;235.93;;;21.80;99.90;;;;;;5077845;28;20426;-84
2021/09/15 11:29:56;;;;;;;275.10;257.50;;;22.00;99.90;;;;;;5078221;28;20876;-85
2021/09/15 11:32:23;;;;;;;274.33;256.37;;;22.10;99.90;;;;;;5075932;28;20780;-84
2021/09/15 11:34:51;;;;;;;233.27;217.47;;;22.20;99.90;;;;;;5077210;28;20816;-85
2021/09/15 11:37:19;;;;;;;296.67;277.50;;;22.30;99.90;;;;;;5078430;28;20432;-84
2021/09/15 11:39:54;;;;;;;272.47;254.60;;;22.40;99.90;;;;;;5078608;28;20968;-85
2021/09/15 11:42:26;;;;;;;275.10;257.60;;;22.60;99.90;;;;;;5078679;28;20389;-84
2021/09/15 11:44:51;;;;;;;281.10;263.07;;;22.70;99.90;;;;;;5078236;28;20418;-85
2021/09/15 11:47:26;;;;;;;307.33;287.33;;;22.90;99.90;;;;;;5078678;28;20746;-85
2021/09/15 11:49:51;;;;;;;345.43;323.07;;;22.90;99.90;;;;;;5076543;28;20177;-84
2021/09/15 11:52:18;;;;;;;365.37;341.87;;;23.00;99.90;;;;;;5079035;28;20862;-85
2021/09/15 11:54:49;;;;;;;365.50;342.37;;;22.90;99.90;;;;;;5077416;28;20455;-85
2021/09/15 11:57:16;;;;;;;357.37;334.77;;;23.10;99.90;;;;;;5078584;28;20885;-85
2021/09/15 11:59:42;;;;;;;386.73;362.43;;;23.00;99.90;;;;;;5075661;28;20477;-85
2021/09/15 12:02:10;;;;;;;373.87;349.77;;;23.00;99.90;;;;;;5076994;28;20441;-85
2021/09/15 12:04:40;;;;;;;392.37;367.53;;;22.80;99.90;;;;;;5078978;28;20413;-85
2021/09/15 12:07:06;;;;;;;395.17;370.10;;;22.80;99.90;;;;;;5079619;28;20425;-85
2021/09/15 12:09:35;;;;;;;410.67;384.87;;;22.70;99.90;;;;;;5076335;28;20411;-85
2021/09/15 12:12:07;;;;;;;385.03;360.33;;;22.80;99.90;;;;;;5076901;28;20402;-85
2021/09/15 12:14:33;;;;;;;393.83;369.00;;;22.80;99.90;;;;;;5077188;28;20402;-85
2021/09/15 12:17:04;;;;;;;412.60;387.17;;;22.80;99.90;;;;;;5079564;28;20429;-85
2021/09/15 12:19:30;;;;;;;389.20;364.77;;;22.90;99.90;;;;;;5079006;28;20237;-85
2021/09/15 12:21:56;;;;;;;364.50;340.87;;;22.80;99.90;;;;;;5080539;28;20409;-84
2021/09/15 12:24:23;;;;;;;362.07;339.63;;;22.90;99.90;;;;;;5079415;28;20406;-85
2021/09/15 12:26:50;;;;;;;369.53;345.97;;;22.90;99.90;;;;;;5078134;28;20433;-85
2021/09/15 12:29:20;;;;;;;397.03;371.43;;;22.90;99.90;;;;;;5079023;28;20769;-85
2021/09/15 12:31:50;;;;;;;414.37;388.60;;;23.00;99.90;;;;;;5079418;28;20378;-85
2021/09/15 12:34:27;;;;;;;401.20;376.07;;;22.90;99.90;;;;;;5079620;28;20414;-85
2021/09/15 12:37:11;;;;;;;430.70;404.20;;;23.00;99.90;;;;;;5080403;28;20423;-85
2021/09/15 12:39:58;;;;;;;440.57;414.10;;;23.10;99.90;;;;;;5078502;28;20446;-85
2021/09/15 12:42:26;;;;;;;454.33;427.07;;;23.10;99.90;;;;;;5078696;28;20417;-86
2021/09/15 12:45:07;;;;;;;470.77;442.17;;;23.00;99.90;;;;;;5080011;28;20452;-85
2021/09/15 12:47:46;;;;;;;397.30;373.07;;;23.10;99.90;;;;;;5079734;28;20418;-85
2021/09/15 12:50:28;;;;;;;397.43;373.03;;;23.20;99.90;;;;;;5078395;28;20402;-84
2021/09/15 12:53:09;;;;;;;414.00;389.13;;;23.60;99.90;;;;;;5077664;28;20426;-84
2021/09/15 12:55:41;;;;;;;462.60;435.90;;;23.80;99.90;;;;;;5078333;28;20394;-84
2021/09/15 12:58:12;;;;;;;533.33;500.67;;;23.90;99.90;;;;;;5078409;28;20457;-83
2021/09/15 13:00:47;;;;;;;531.43;498.93;;;23.70;99.90;;;;;;5077000;28;20456;-83
2021/09/15 13:03:14;;;;;;;508.63;478.83;;;23.60;99.90;;;;;;5076864;28;20478;-83
2021/09/15 13:05:42;;;;;;;502.40;472.77;;;23.40;99.90;;;;;;5076199;28;20411;-83
2021/09/15 13:08:22;;;;;;;524.27;493.30;;;23.30;99.90;;;;;;5077432;28;20429;-83
2021/09/15 13:10:49;;;;;;;523.27;491.37;;;23.40;99.90;;;;;;5076362;28;20425;-83
2021/09/15 13:13:20;;;;;;;559.20;526.10;;;23.30;99.90;;;;;;5075903;28;20434;-83
2021/09/15 13:15:47;;;;;;;570.30;535.40;;;23.30;99.90;;;;;;5076968;28;20434;-83
2021/09/15 13:18:12;;;;;;;556.30;523.40;;;23.30;99.90;;;;;;5076520;28;20450;-83
2021/09/15 13:20:38;;;;;;;545.00;512.77;;;23.20;99.90;;;;;;5076768;28;20405;-83
2021/09/15 13:23:04;;;;;;;550.73;518.53;;;23.20;99.90;;;;;;5075598;28;20207;-82
2021/09/15 13:25:30;;;;;;;564.60;532.03;;;23.20;99.90;;;;;;5075848;28;20202;-82
2021/09/15 13:27:56;;;;;;;544.13;512.53;;;23.20;99.90;;;;;;5076750;28;20501;-82
2021/09/15 13:30:21;;;;;;;529.20;497.40;;;23.30;99.90;;;;;;5075775;28;20176;-82
2021/09/15 13:32:47;;;;;;;570.70;536.70;;;23.30;99.90;;;;;;5076143;28;20179;-82
2021/09/15 13:35:13;;;;;;;588.47;554.43;;;23.40;99.90;;;;;;5076935;28;20662;-82
2021/09/15 13:37:39;;;;;;;562.07;529.17;;;23.40;99.90;;;;;;5077079;28;20728;-83
2021/09/15 13:40:07;;;;;;;580.07;546.07;;;23.40;99.90;;;;;;5077122;28;20501;-83
2021/09/15 13:42:33;;;;;;;571.97;538.77;;;23.30;99.90;;;;;;5077351;28;20410;-82
2021/09/15 13:44:59;;;;;;;564.37;530.40;;;23.30;99.90;;;;;;5077532;28;20889;-82
2021/09/15 13:47:25;;;;;;;556.40;523.07;;;23.30;99.90;;;;;;5076930;28;20476;-82
2021/09/15 13:49:51;;;;;;;551.63;519.43;;;23.40;99.90;;;;;;5076863;28;20409;-82
2021/09/15 13:52:17;;;;;;;562.10;528.53;;;23.40;99.90;;;;;;5075173;28;20438;-82
2021/09/15 13:54:45;;;;;;;532.43;500.43;;;23.40;99.90;;;;;;5075781;28;20174;-82
2021/09/15 13:57:12;;;;;;;496.37;466.60;;;23.30;99.90;;;;;;5076880;28;20426;-82
2021/09/15 13:59:41;;;;;;;535.50;503.93;;;23.40;99.90;;;;;;5076676;28;20445;-82
2021/09/15 14:02:07;;;;;;;516.97;487.07;;;23.40;99.90;;;;;;5075391;28;20407;-83
2021/09/15 14:04:34;;;;;;;566.50;533.00;;;23.50;99.90;;;;;;5076189;28;20402;-82
2021/09/15 14:07:01;;;;;;;515.03;484.37;;;23.60;99.90;;;;;;5076577;28;20441;-83
2021/09/15 14:09:27;;;;;;;488.30;458.67;;;23.80;99.90;;;;;;5077184;28;20473;-83
2021/09/15 14:11:53;;;;;;;459.97;432.70;;;24.00;99.90;;;;;;5076537;28;20491;-83
2021/09/15 14:14:18;;;;;;;426.60;400.47;;;24.00;99.90;;;;;;5075105;28;20931;-83
2021/09/15 14:16:45;;;;;;;286.97;268.57;;;24.00;99.90;;;;;;5076951;28;20426;-83
2021/09/15 14:19:11;;;;;;;217.07;201.27;;;24.10;99.90;;;;;;5076440;28;20192;-82
2021/09/15 14:21:38;;;;;;;252.30;234.97;;;24.20;99.90;;;;;;5075135;28;20440;-83
2021/09/15 14:24:05;;;;;;;215.50;200.03;;;24.20;99.90;;;;;;5076987;28;20724;-83
2021/09/15 14:26:31;;;;;;;249.97;232.87;;;24.10;99.90;;;;;;5074734;28;20520;-83
2021/09/15 14:28:58;;;;;;;254.50;237.27;;;24.00;99.90;;;;;;5075975;28;20429;-83
2021/09/15 14:31:24;;;;;;;234.63;218.20;;;23.90;99.90;;;;;;5076915;28;20409;-83
2021/09/15 14:33:50;;;;;;;207.57;192.10;;;23.90;99.90;;;;;;5076269;28;20452;-83